sensor_id;sensor_type;location;lat;lon;timestamp;P1;durP1;ratioP1;P2;durP2;ratioP2
17947;SDS011;9099;47.958;11.366;2024-01-30T00:00:27;2.60;;;2.30;;
17947;SDS011;9099;47.958;11.366;2024-01-30T00:02:54;3.23;;;2.47;;
17947;SDS011;9099;47.958;11.366;2024-01-30T00:05:21;2.30;;;2.10;;
17947;SDS011;9099;47.958;11.366;2024-01-30T00:07:49;2.70;;;2.40;;
17947;SDS011;9099;47.958;11.366;2024-01-30T00:10:16;2.40;;;2.20;;
17947;SDS011;9099;47.958;11.366;2024-01-30T00:12:43;2.40;;;2.13;;
17947;SDS011;9099;47.958;11.366;2024-01-30T00:15:10;2.40;;;2.10;;
17947;SDS011;9099;47.958;11.366;2024-01-30T00:17:37;4.03;;;2.13;;
17947;SDS011;9099;47.958;11.366;2024-01-30T00:20:04;2.23;;;2.00;;
17947;SDS011;9099;47.958;11.366;2024-01-30T00:22:34;3.08;;;2.30;;
17947;SDS011;9099;47.958;11.366;2024-01-30T00:25:02;3.27;;;1.90;;
17947;SDS011;9099;47.958;11.366;2024-01-30T00:27:29;2.70;;;2.10;;
17947;SDS011;9099;47.958;11.366;2024-01-30T00:29:56;2.70;;;1.90;;
17947;SDS011;9099;47.958;11.366;2024-01-30T00:32:23;2.23;;;2.00;;
17947;SDS011;9099;47.958;11.366;2024-01-30T00:34:49;2.50;;;2.23;;
17947;SDS011;9099;47.958;11.366;2024-01-30T00:37:16;2.27;;;2.03;;
17947;SDS011;9099;47.958;11.366;2024-01-30T00:39:43;3.20;;;2.60;;
17947;SDS011;9099;47.958;11.366;2024-01-30T00:42:11;3.72;;;3.10;;
17947;SDS011;9099;47.958;11.366;2024-01-30T00:44:38;3.15;;;2.58;;
17947;SDS011;9099;47.958;11.366;2024-01-30T00:47:05;4.80;;;2.30;;
17947;SDS011;9099;47.958;11.366;2024-01-30T00:49:32;3.10;;;2.43;;
17947;SDS011;9099;47.958;11.366;2024-01-30T00:51:59;2.30;;;2.10;;
17947;SDS011;9099;47.958;11.366;2024-01-30T00:54:26;2.70;;;2.20;;
17947;SDS011;9099;47.958;11.366;2024-01-30T00:56:53;2.75;;;2.30;;
17947;SDS011;9099;47.958;11.366;2024-01-30T00:59:21;2.45;;;1.92;;
17947;SDS011;9099;47.958;11.366;2024-01-30T01:01:48;4.80;;;2.40;;
17947;SDS011;9099;47.958;11.366;2024-01-30T01:04:15;3.07;;;1.97;;
17947;SDS011;9099;47.958;11.366;2024-01-30T01:06:42;3.07;;;2.00;;
17947;SDS011;9099;47.958;11.366;2024-01-30T01:09:10;2.50;;;2.07;;
17947;SDS011;9099;47.958;11.366;2024-01-30T01:11:37;3.43;;;2.20;;
17947;SDS011;9099;47.958;11.366;2024-01-30T01:14:04;2.33;;;2.10;;
17947;SDS011;9099;47.958;11.366;2024-01-30T01:16:32;1.87;;;1.73;;
17947;SDS011;9099;47.958;11.366;2024-01-30T01:18:58;2.20;;;1.80;;
17947;SDS011;9099;47.958;11.366;2024-01-30T01:21:25;4.23;;;1.90;;
17947;SDS011;9099;47.958;11.366;2024-01-30T01:23:52;1.87;;;1.60;;
17947;SDS011;9099;47.958;11.366;2024-01-30T01:26:19;1.60;;;1.50;;
17947;SDS011;9099;47.958;11.366;2024-01-30T01:28:46;2.07;;;1.80;;
17947;SDS011;9099;47.958;11.366;2024-01-30T01:31:13;3.07;;;2.00;;
17947;SDS011;9099;47.958;11.366;2024-01-30T01:33:41;1.70;;;1.60;;
17947;SDS011;9099;47.958;11.366;2024-01-30T01:36:08;2.77;;;1.67;;
17947;SDS011;9099;47.958;11.366;2024-01-30T01:38:35;2.17;;;1.90;;
17947;SDS011;9099;47.958;11.366;2024-01-30T01:41:02;2.47;;;1.90;;
17947;SDS011;9099;47.958;11.366;2024-01-30T01:43:29;2.40;;;1.80;;
17947;SDS011;9099;47.958;11.366;2024-01-30T01:45:56;2.33;;;2.03;;
17947;SDS011;9099;47.958;11.366;2024-01-30T01:48:23;1.97;;;1.80;;
17947;SDS011;9099;47.958;11.366;2024-01-30T01:50:51;1.70;;;1.60;;
17947;SDS011;9099;47.958;11.366;2024-01-30T01:53:18;2.07;;;1.90;;
17947;SDS011;9099;47.958;11.366;2024-01-30T01:55:45;1.97;;;1.77;;
17947;SDS011;9099;47.958;11.366;2024-01-30T01:58:13;2.03;;;1.87;;
17947;SDS011;9099;47.958;11.366;2024-01-30T02:00:41;2.47;;;1.90;;
17947;SDS011;9099;47.958;11.366;2024-01-30T02:03:09;3.20;;;2.03;;
17947;SDS011;9099;47.958;11.366;2024-01-30T02:05:37;2.90;;;2.23;;
17947;SDS011;9099;47.958;11.366;2024-01-30T02:08:07;2.70;;;2.00;;
17947;SDS011;9099;47.958;11.366;2024-01-30T02:10:35;2.40;;;2.20;;
17947;SDS011;9099;47.958;11.366;2024-01-30T02:13:02;2.20;;;2.00;;
17947;SDS011;9099;47.958;11.366;2024-01-30T02:15:29;2.30;;;2.00;;
17947;SDS011;9099;47.958;11.366;2024-01-30T02:17:56;2.03;;;1.92;;
17947;SDS011;9099;47.958;11.366;2024-01-30T02:20:23;2.43;;;2.13;;
17947;SDS011;9099;47.958;11.366;2024-01-30T02:22:54;2.20;;;1.90;;
17947;SDS011;9099;47.958;11.366;2024-01-30T02:25:29;1.87;;;1.50;;
17947;SDS011;9099;47.958;11.366;2024-01-30T02:27:57;1.60;;;1.50;;
17947;SDS011;9099;47.958;11.366;2024-01-30T02:30:24;2.03;;;1.83;;
17947;SDS011;9099;47.958;11.366;2024-01-30T02:32:51;1.83;;;1.73;;
17947;SDS011;9099;47.958;11.366;2024-01-30T02:35:18;1.83;;;1.67;;
17947;SDS011;9099;47.958;11.366;2024-01-30T02:37:44;1.77;;;1.67;;
17947;SDS011;9099;47.958;11.366;2024-01-30T02:40:13;1.77;;;1.67;;
17947;SDS011;9099;47.958;11.366;2024-01-30T02:42:39;1.70;;;1.60;;
17947;SDS011;9099;47.958;11.366;2024-01-30T02:45:08;1.77;;;1.50;;
17947;SDS011;9099;47.958;11.366;2024-01-30T02:47:35;2.10;;;1.70;;
17947;SDS011;9099;47.958;11.366;2024-01-30T02:50:02;1.67;;;1.57;;
17947;SDS011;9099;47.958;11.366;2024-01-30T02:52:30;1.83;;;1.50;;
17947;SDS011;9099;47.958;11.366;2024-01-30T02:54:57;1.43;;;1.33;;
17947;SDS011;9099;47.958;11.366;2024-01-30T02:57:25;1.40;;;1.30;;
17947;SDS011;9099;47.958;11.366;2024-01-30T02:59:51;1.70;;;1.60;;
17947;SDS011;9099;47.958;11.366;2024-01-30T03:02:18;1.70;;;1.57;;
17947;SDS011;9099;47.958;11.366;2024-01-30T03:04:45;1.80;;;1.70;;
17947;SDS011;9099;47.958;11.366;2024-01-30T03:07:12;1.80;;;1.70;;
17947;SDS011;9099;47.958;11.366;2024-01-30T03:09:40;1.60;;;1.50;;
17947;SDS011;9099;47.958;11.366;2024-01-30T03:12:08;1.77;;;1.67;;
17947;SDS011;9099;47.958;11.366;2024-01-30T03:14:37;2.00;;;1.80;;
17947;SDS011;9099;47.958;11.366;2024-01-30T03:17:03;1.70;;;1.53;;
17947;SDS011;9099;47.958;11.366;2024-01-30T03:19:30;2.70;;;1.80;;
17947;SDS011;9099;47.958;11.366;2024-01-30T03:21:57;1.47;;;1.30;;
17947;SDS011;9099;47.958;11.366;2024-01-30T03:24:24;1.70;;;1.57;;
17947;SDS011;9099;47.958;11.366;2024-01-30T03:26:51;1.70;;;1.60;;
17947;SDS011;9099;47.958;11.366;2024-01-30T03:29:18;1.30;;;1.20;;
17947;SDS011;9099;47.958;11.366;2024-01-30T03:31:46;1.90;;;1.50;;
17947;SDS011;9099;47.958;11.366;2024-01-30T03:34:13;1.33;;;1.23;;
17947;SDS011;9099;47.958;11.366;2024-01-30T03:36:40;1.67;;;1.57;;
17947;SDS011;9099;47.958;11.366;2024-01-30T03:39:07;1.80;;;1.40;;
17947;SDS011;9099;47.958;11.366;2024-01-30T03:41:34;1.67;;;1.57;;
17947;SDS011;9099;47.958;11.366;2024-01-30T03:44:01;1.77;;;1.50;;
17947;SDS011;9099;47.958;11.366;2024-01-30T03:46:28;1.50;;;1.40;;
17947;SDS011;9099;47.958;11.366;2024-01-30T03:48:56;1.50;;;1.17;;
17947;SDS011;9099;47.958;11.366;2024-01-30T03:51:23;1.80;;;1.67;;
17947;SDS011;9099;47.958;11.366;2024-01-30T03:53:50;1.43;;;1.20;;
17947;SDS011;9099;47.958;11.366;2024-01-30T03:56:16;1.50;;;1.20;;
17947;SDS011;9099;47.958;11.366;2024-01-30T03:58:43;1.60;;;1.40;;
17947;SDS011;9099;47.958;11.366;2024-01-30T04:01:12;1.25;;;1.15;;
17947;SDS011;9099;47.958;11.366;2024-01-30T04:03:39;1.60;;;1.20;;
17947;SDS011;9099;47.958;11.366;2024-01-30T04:06:08;1.40;;;1.23;;
17947;SDS011;9099;47.958;11.366;2024-01-30T04:08:34;1.30;;;1.20;;
17947;SDS011;9099;47.958;11.366;2024-01-30T04:11:03;1.17;;;1.07;;
17947;SDS011;9099;47.958;11.366;2024-01-30T04:13:31;1.47;;;1.20;;
17947;SDS011;9099;47.958;11.366;2024-01-30T04:15:58;1.30;;;1.20;;
17947;SDS011;9099;47.958;11.366;2024-01-30T04:18:26;1.30;;;0.93;;
17947;SDS011;9099;47.958;11.366;2024-01-30T04:20:53;1.10;;;1.00;;
17947;SDS011;9099;47.958;11.366;2024-01-30T04:23:22;1.00;;;0.90;;
17947;SDS011;9099;47.958;11.366;2024-01-30T04:25:48;1.07;;;1.00;;
17947;SDS011;9099;47.958;11.366;2024-01-30T04:28:15;1.17;;;1.10;;
17947;SDS011;9099;47.958;11.366;2024-01-30T04:30:42;0.87;;;0.80;;
17947;SDS011;9099;47.958;11.366;2024-01-30T04:33:10;1.00;;;0.90;;
17947;SDS011;9099;47.958;11.366;2024-01-30T04:35:37;1.87;;;1.00;;
17947;SDS011;9099;47.958;11.366;2024-01-30T04:38:03;1.10;;;0.90;;
17947;SDS011;9099;47.958;11.366;2024-01-30T04:40:32;1.77;;;1.00;;
17947;SDS011;9099;47.958;11.366;2024-01-30T04:42:58;0.87;;;0.87;;
17947;SDS011;9099;47.958;11.366;2024-01-30T04:45:25;1.57;;;0.90;;
17947;SDS011;9099;47.958;11.366;2024-01-30T04:47:52;1.10;;;1.10;;
17947;SDS011;9099;47.958;11.366;2024-01-30T04:50:19;0.80;;;0.80;;
17947;SDS011;9099;47.958;11.366;2024-01-30T04:52:46;1.03;;;0.80;;
17947;SDS011;9099;47.958;11.366;2024-01-30T04:55:12;1.20;;;0.80;;
17947;SDS011;9099;47.958;11.366;2024-01-30T04:57:41;1.30;;;0.90;;
17947;SDS011;9099;47.958;11.366;2024-01-30T05:00:08;1.08;;;0.95;;
17947;SDS011;9099;47.958;11.366;2024-01-30T05:02:35;0.70;;;0.70;;
17947;SDS011;9099;47.958;11.366;2024-01-30T05:05:02;1.27;;;1.10;;
17947;SDS011;9099;47.958;11.366;2024-01-30T05:07:30;1.40;;;1.30;;
17947;SDS011;9099;47.958;11.366;2024-01-30T05:13:14;1.67;;;1.57;;
17947;SDS011;9099;47.958;11.366;2024-01-30T05:15:41;1.40;;;1.30;;
17947;SDS011;9099;47.958;11.366;2024-01-30T05:18:08;1.37;;;1.17;;
17947;SDS011;9099;47.958;11.366;2024-01-30T05:20:35;1.77;;;1.30;;
17947;SDS011;9099;47.958;11.366;2024-01-30T05:23:02;1.40;;;1.30;;
17947;SDS011;9099;47.958;11.366;2024-01-30T05:25:29;1.50;;;1.40;;
17947;SDS011;9099;47.958;11.366;2024-01-30T05:27:55;1.50;;;1.40;;
17947;SDS011;9099;47.958;11.366;2024-01-30T05:30:23;1.40;;;1.30;;
17947;SDS011;9099;47.958;11.366;2024-01-30T05:32:50;1.30;;;1.10;;
17947;SDS011;9099;47.958;11.366;2024-01-30T05:35:17;1.70;;;1.20;;
17947;SDS011;9099;47.958;11.366;2024-01-30T05:37:46;1.40;;;1.30;;
17947;SDS011;9099;47.958;11.366;2024-01-30T05:40:13;1.37;;;1.27;;
17947;SDS011;9099;47.958;11.366;2024-01-30T05:42:40;2.03;;;1.40;;
17947;SDS011;9099;47.958;11.366;2024-01-30T05:45:07;1.00;;;1.00;;
17947;SDS011;9099;47.958;11.366;2024-01-30T05:47:36;1.20;;;1.10;;
17947;SDS011;9099;47.958;11.366;2024-01-30T05:50:03;1.60;;;1.50;;
17947;SDS011;9099;47.958;11.366;2024-01-30T05:52:31;1.73;;;1.43;;
17947;SDS011;9099;47.958;11.366;2024-01-30T05:54:58;1.30;;;1.20;;
17947;SDS011;9099;47.958;11.366;2024-01-30T05:57:25;1.30;;;1.20;;
17947;SDS011;9099;47.958;11.366;2024-01-30T05:59:51;1.47;;;1.10;;
17947;SDS011;9099;47.958;11.366;2024-01-30T06:02:18;1.10;;;1.00;;
17947;SDS011;9099;47.958;11.366;2024-01-30T06:04:46;1.10;;;1.00;;
17947;SDS011;9099;47.958;11.366;2024-01-30T06:07:13;0.97;;;0.87;;
17947;SDS011;9099;47.958;11.366;2024-01-30T06:09:40;1.10;;;1.00;;
17947;SDS011;9099;47.958;11.366;2024-01-30T06:12:07;2.83;;;1.00;;
17947;SDS011;9099;47.958;11.366;2024-01-30T06:14:36;1.70;;;1.23;;
17947;SDS011;9099;47.958;11.366;2024-01-30T06:17:03;1.10;;;0.90;;
17947;SDS011;9099;47.958;11.366;2024-01-30T06:19:30;1.47;;;0.90;;
17947;SDS011;9099;47.958;11.366;2024-01-30T06:21:59;1.03;;;0.93;;
17947;SDS011;9099;47.958;11.366;2024-01-30T06:24:26;0.80;;;0.80;;
17947;SDS011;9099;47.958;11.366;2024-01-30T06:26:53;1.20;;;0.77;;
17947;SDS011;9099;47.958;11.366;2024-01-30T06:29:19;0.80;;;0.70;;
17947;SDS011;9099;47.958;11.366;2024-01-30T06:31:47;0.80;;;0.80;;
17947;SDS011;9099;47.958;11.366;2024-01-30T06:34:13;0.97;;;0.90;;
17947;SDS011;9099;47.958;11.366;2024-01-30T06:36:40;1.57;;;1.20;;
17947;SDS011;9099;47.958;11.366;2024-01-30T06:39:09;1.40;;;1.20;;
17947;SDS011;9099;47.958;11.366;2024-01-30T06:41:35;1.00;;;0.90;;
17947;SDS011;9099;47.958;11.366;2024-01-30T06:44:02;0.87;;;0.83;;
17947;SDS011;9099;47.958;11.366;2024-01-30T06:46:31;1.10;;;1.00;;
17947;SDS011;9099;47.958;11.366;2024-01-30T06:48:58;1.40;;;0.90;;
17947;SDS011;9099;47.958;11.366;2024-01-30T06:51:25;0.80;;;0.80;;
17947;SDS011;9099;47.958;11.366;2024-01-30T06:53:52;1.20;;;1.10;;
17947;SDS011;9099;47.958;11.366;2024-01-30T06:56:20;1.00;;;1.00;;
17947;SDS011;9099;47.958;11.366;2024-01-30T06:58:47;2.50;;;1.13;;
17947;SDS011;9099;47.958;11.366;2024-01-30T07:01:14;2.07;;;1.20;;
17947;SDS011;9099;47.958;11.366;2024-01-30T07:03:42;1.20;;;1.10;;
17947;SDS011;9099;47.958;11.366;2024-01-30T07:06:09;1.73;;;1.13;;
17947;SDS011;9099;47.958;11.366;2024-01-30T07:08:37;1.20;;;1.10;;
17947;SDS011;9099;47.958;11.366;2024-01-30T07:11:04;1.83;;;1.10;;
17947;SDS011;9099;47.958;11.366;2024-01-30T07:13:32;1.97;;;1.50;;
17947;SDS011;9099;47.958;11.366;2024-01-30T07:16:00;1.27;;;1.17;;
17947;SDS011;9099;47.958;11.366;2024-01-30T07:18:27;0.90;;;0.90;;
17947;SDS011;9099;47.958;11.366;2024-01-30T07:20:54;0.90;;;0.90;;
17947;SDS011;9099;47.958;11.366;2024-01-30T07:26:42;1.10;;;1.00;;
17947;SDS011;9099;47.958;11.366;2024-01-30T07:29:11;1.77;;;1.50;;
17947;SDS011;9099;47.958;11.366;2024-01-30T07:31:38;1.10;;;1.00;;
17947;SDS011;9099;47.958;11.366;2024-01-30T07:34:05;1.40;;;1.30;;
17947;SDS011;9099;47.958;11.366;2024-01-30T07:36:32;1.10;;;1.00;;
17947;SDS011;9099;47.958;11.366;2024-01-30T07:38:58;2.38;;;1.30;;
17947;SDS011;9099;47.958;11.366;2024-01-30T07:41:25;1.08;;;0.98;;
17947;SDS011;9099;47.958;11.366;2024-01-30T07:43:52;1.08;;;0.98;;
17947;SDS011;9099;47.958;11.366;2024-01-30T07:46:20;2.97;;;1.33;;
17947;SDS011;9099;47.958;11.366;2024-01-30T07:48:47;1.77;;;1.05;;
17947;SDS011;9099;47.958;11.366;2024-01-30T07:51:14;1.73;;;1.00;;
17947;SDS011;9099;47.958;11.366;2024-01-30T07:53:41;1.10;;;1.00;;
17947;SDS011;9099;47.958;11.366;2024-01-30T07:56:07;1.63;;;1.08;;
17947;SDS011;9099;47.958;11.366;2024-01-30T07:58:34;1.20;;;1.10;;
17947;SDS011;9099;47.958;11.366;2024-01-30T08:01:01;1.00;;;1.00;;
17947;SDS011;9099;47.958;11.366;2024-01-30T08:03:29;1.20;;;1.20;;
17947;SDS011;9099;47.958;11.366;2024-01-30T08:05:56;1.58;;;1.20;;
17947;SDS011;9099;47.958;11.366;2024-01-30T08:08:23;1.98;;;1.63;;
17947;SDS011;9099;47.958;11.366;2024-01-30T08:10:51;1.65;;;1.55;;
17947;SDS011;9099;47.958;11.366;2024-01-30T08:13:18;1.70;;;1.60;;
17947;SDS011;9099;47.958;11.366;2024-01-30T08:15:45;2.03;;;1.40;;
17947;SDS011;9099;47.958;11.366;2024-01-30T08:18:12;1.58;;;1.48;;
17947;SDS011;9099;47.958;11.366;2024-01-30T08:20:40;1.38;;;1.27;;
17947;SDS011;9099;47.958;11.366;2024-01-30T08:23:07;1.60;;;1.27;;
17947;SDS011;9099;47.958;11.366;2024-01-30T08:25:34;1.90;;;1.60;;
17947;SDS011;9099;47.958;11.366;2024-01-30T08:28:01;1.60;;;1.50;;
17947;SDS011;9099;47.958;11.366;2024-01-30T08:30:29;1.60;;;1.50;;
17947;SDS011;9099;47.958;11.366;2024-01-30T08:32:56;1.60;;;1.50;;
17947;SDS011;9099;47.958;11.366;2024-01-30T08:35:22;1.60;;;1.50;;
17947;SDS011;9099;47.958;11.366;2024-01-30T08:37:51;1.75;;;1.65;;
17947;SDS011;9099;47.958;11.366;2024-01-30T08:40:19;1.67;;;1.60;;
17947;SDS011;9099;47.958;11.366;2024-01-30T08:42:46;1.60;;;1.50;;
17947;SDS011;9099;47.958;11.366;2024-01-30T08:45:12;1.98;;;1.77;;
17947;SDS011;9099;47.958;11.366;2024-01-30T08:47:40;2.00;;;1.90;;
17947;SDS011;9099;47.958;11.366;2024-01-30T08:50:07;1.90;;;1.80;;
17947;SDS011;9099;47.958;11.366;2024-01-30T08:52:34;1.73;;;1.63;;
17947;SDS011;9099;47.958;11.366;2024-01-30T08:55:02;1.75;;;1.63;;
17947;SDS011;9099;47.958;11.366;2024-01-30T08:57:30;1.90;;;1.80;;
17947;SDS011;9099;47.958;11.366;2024-01-30T08:59:57;1.75;;;1.65;;
17947;SDS011;9099;47.958;11.366;2024-01-30T09:02:24;1.20;;;1.20;;
17947;SDS011;9099;47.958;11.366;2024-01-30T09:04:51;1.70;;;1.60;;
17947;SDS011;9099;47.958;11.366;2024-01-30T09:07:17;2.70;;;1.38;;
17947;SDS011;9099;47.958;11.366;2024-01-30T09:09:44;1.83;;;1.70;;
17947;SDS011;9099;47.958;11.366;2024-01-30T09:12:12;2.08;;;1.60;;
17947;SDS011;9099;47.958;11.366;2024-01-30T09:14:39;1.67;;;1.58;;
17947;SDS011;9099;47.958;11.366;2024-01-30T09:20:28;2.00;;;1.70;;
17947;SDS011;9099;47.958;11.366;2024-01-30T09:22:55;1.80;;;1.58;;
17947;SDS011;9099;47.958;11.366;2024-01-30T09:25:22;2.38;;;1.52;;
17947;SDS011;9099;47.958;11.366;2024-01-30T09:27:50;3.88;;;2.00;;
17947;SDS011;9099;47.958;11.366;2024-01-30T09:30:17;5.15;;;2.10;;
17947;SDS011;9099;47.958;11.366;2024-01-30T09:32:44;4.75;;;1.88;;
17947;SDS011;9099;47.958;11.366;2024-01-30T09:35:11;2.63;;;1.50;;
17947;SDS011;9099;47.958;11.366;2024-01-30T09:37:38;3.63;;;2.08;;
17947;SDS011;9099;47.958;11.366;2024-01-30T09:40:05;1.27;;;1.27;;
17947;SDS011;9099;47.958;11.366;2024-01-30T09:42:35;2.20;;;1.77;;
17947;SDS011;9099;47.958;11.366;2024-01-30T09:45:04;2.08;;;1.92;;
17947;SDS011;9099;47.958;11.366;2024-01-30T09:47:32;4.05;;;1.85;;
17947;SDS011;9099;47.958;11.366;2024-01-30T09:50:04;2.10;;;1.90;;
17947;SDS011;9099;47.958;11.366;2024-01-30T09:52:33;2.00;;;1.90;;
17947;SDS011;9099;47.958;11.366;2024-01-30T09:55:00;2.15;;;1.85;;
17947;SDS011;9099;47.958;11.366;2024-01-30T09:57:27;2.20;;;2.00;;
17947;SDS011;9099;47.958;11.366;2024-01-30T09:59:54;2.10;;;2.00;;
17947;SDS011;9099;47.958;11.366;2024-01-30T10:02:23;2.30;;;1.90;;
17947;SDS011;9099;47.958;11.366;2024-01-30T10:04:50;1.90;;;1.80;;
17947;SDS011;9099;47.958;11.366;2024-01-30T10:07:18;3.17;;;2.40;;
17947;SDS011;9099;47.958;11.366;2024-01-30T10:09:46;3.20;;;2.00;;
17947;SDS011;9099;47.958;11.366;2024-01-30T10:12:14;1.95;;;1.75;;
17947;SDS011;9099;47.958;11.366;2024-01-30T10:14:42;2.25;;;2.05;;
17947;SDS011;9099;47.958;11.366;2024-01-30T10:17:10;1.70;;;1.60;;
17947;SDS011;9099;47.958;11.366;2024-01-30T10:19:39;4.07;;;2.35;;
17947;SDS011;9099;47.958;11.366;2024-01-30T10:22:06;2.17;;;1.98;;
17947;SDS011;9099;47.958;11.366;2024-01-30T10:24:34;2.38;;;2.28;;
17947;SDS011;9099;47.958;11.366;2024-01-30T10:27:02;1.70;;;1.60;;
17947;SDS011;9099;47.958;11.366;2024-01-30T10:29:29;1.60;;;1.50;;
17947;SDS011;9099;47.958;11.366;2024-01-30T10:31:59;1.67;;;1.58;;
17947;SDS011;9099;47.958;11.366;2024-01-30T10:34:27;1.52;;;1.42;;
17947;SDS011;9099;47.958;11.366;2024-01-30T10:36:59;3.88;;;1.90;;
17947;SDS011;9099;47.958;11.366;2024-01-30T10:39:30;2.45;;;1.80;;
17947;SDS011;9099;47.958;11.366;2024-01-30T10:42:03;3.03;;;1.70;;
17947;SDS011;9099;47.958;11.366;2024-01-30T10:44:36;1.90;;;1.80;;
17947;SDS011;9099;47.958;11.366;2024-01-30T10:47:09;2.67;;;2.00;;
17947;SDS011;9099;47.958;11.366;2024-01-30T10:49:39;3.20;;;1.88;;
17947;SDS011;9099;47.958;11.366;2024-01-30T10:52:09;4.53;;;1.83;;
17947;SDS011;9099;47.958;11.366;2024-01-30T10:54:38;2.90;;;1.55;;
17947;SDS011;9099;47.958;11.366;2024-01-30T10:57:09;5.03;;;1.58;;
17947;SDS011;9099;47.958;11.366;2024-01-30T10:59:37;4.43;;;1.73;;
17947;SDS011;9099;47.958;11.366;2024-01-30T11:02:04;1.85;;;1.35;;
17947;SDS011;9099;47.958;11.366;2024-01-30T11:04:35;4.15;;;1.40;;
17947;SDS011;9099;47.958;11.366;2024-01-30T11:07:02;4.78;;;1.90;;
17947;SDS011;9099;47.958;11.366;2024-01-30T11:09:48;2.47;;;1.67;;
17947;SDS011;9099;47.958;11.366;2024-01-30T11:12:15;1.48;;;1.38;;
17947;SDS011;9099;47.958;11.366;2024-01-30T11:14:42;2.72;;;1.40;;
17947;SDS011;9099;47.958;11.366;2024-01-30T11:17:09;2.05;;;1.40;;
17947;SDS011;9099;47.958;11.366;2024-01-30T11:19:37;4.82;;;1.70;;
17947;SDS011;9099;47.958;11.366;2024-01-30T11:22:06;1.55;;;1.33;;
17947;SDS011;9099;47.958;11.366;2024-01-30T11:24:38;2.28;;;1.65;;
17947;SDS011;9099;47.958;11.366;2024-01-30T11:27:08;2.10;;;1.40;;
17947;SDS011;9099;47.958;11.366;2024-01-30T11:29:35;2.95;;;1.50;;
17947;SDS011;9099;47.958;11.366;2024-01-30T11:32:02;1.55;;;1.35;;
17947;SDS011;9099;47.958;11.366;2024-01-30T11:34:30;1.60;;;1.27;;
17947;SDS011;9099;47.958;11.366;2024-01-30T11:36:59;1.42;;;1.33;;
17947;SDS011;9099;47.958;11.366;2024-01-30T11:39:30;2.58;;;1.33;;
17947;SDS011;9099;47.958;11.366;2024-01-30T11:41:58;1.42;;;1.30;;
17947;SDS011;9099;47.958;11.366;2024-01-30T11:44:25;2.40;;;1.65;;
17947;SDS011;9099;47.958;11.366;2024-01-30T11:46:52;2.28;;;1.50;;
17947;SDS011;9099;47.958;11.366;2024-01-30T11:49:19;2.45;;;1.10;;
17947;SDS011;9099;47.958;11.366;2024-01-30T11:51:46;1.20;;;1.20;;
17947;SDS011;9099;47.958;11.366;2024-01-30T11:54:14;2.25;;;1.30;;
17947;SDS011;9099;47.958;11.366;2024-01-30T11:56:42;2.97;;;1.20;;
17947;SDS011;9099;47.958;11.366;2024-01-30T11:59:10;1.52;;;1.00;;
17947;SDS011;9099;47.958;11.366;2024-01-30T12:01:37;1.10;;;1.10;;
17947;SDS011;9099;47.958;11.366;2024-01-30T12:04:04;4.15;;;1.42;;
17947;SDS011;9099;47.958;11.366;2024-01-30T12:06:34;1.42;;;1.00;;
17947;SDS011;9099;47.958;11.366;2024-01-30T12:09:01;1.10;;;1.10;;
17947;SDS011;9099;47.958;11.366;2024-01-30T12:11:30;1.20;;;1.10;;
17947;SDS011;9099;47.958;11.366;2024-01-30T12:13:57;1.20;;;0.90;;
17947;SDS011;9099;47.958;11.366;2024-01-30T12:16:25;1.13;;;1.10;;
17947;SDS011;9099;47.958;11.366;2024-01-30T12:18:59;1.15;;;1.15;;
17947;SDS011;9099;47.958;11.366;2024-01-30T12:21:27;1.00;;;1.00;;
17947;SDS011;9099;47.958;11.366;2024-01-30T12:23:54;0.90;;;0.90;;
17947;SDS011;9099;47.958;11.366;2024-01-30T12:26:21;1.25;;;1.15;;
17947;SDS011;9099;47.958;11.366;2024-01-30T12:28:49;1.58;;;1.10;;
17947;SDS011;9099;47.958;11.366;2024-01-30T12:31:17;1.40;;;1.10;;
17947;SDS011;9099;47.958;11.366;2024-01-30T12:33:45;1.80;;;0.95;;
17947;SDS011;9099;47.958;11.366;2024-01-30T12:36:15;6.05;;;2.00;;
17947;SDS011;9099;47.958;11.366;2024-01-30T12:38:43;1.50;;;1.00;;
17947;SDS011;9099;47.958;11.366;2024-01-30T12:41:10;1.17;;;1.10;;
17947;SDS011;9099;47.958;11.366;2024-01-30T12:43:37;3.45;;;1.10;;
17947;SDS011;9099;47.958;11.366;2024-01-30T12:46:04;1.63;;;1.17;;
17947;SDS011;9099;47.958;11.366;2024-01-30T12:48:31;4.28;;;1.60;;
17947;SDS011;9099;47.958;11.366;2024-01-30T12:50:59;1.33;;;1.23;;
17947;SDS011;9099;47.958;11.366;2024-01-30T12:53:26;2.25;;;1.40;;
17947;SDS011;9099;47.958;11.366;2024-01-30T12:55:53;1.33;;;1.20;;
17947;SDS011;9099;47.958;11.366;2024-01-30T12:58:20;1.10;;;1.00;;
17947;SDS011;9099;47.958;11.366;2024-01-30T13:00:47;5.30;;;1.15;;
17947;SDS011;9099;47.958;11.366;2024-01-30T13:03:14;1.77;;;1.10;;
17947;SDS011;9099;47.958;11.366;2024-01-30T13:05:41;1.92;;;1.00;;
17947;SDS011;9099;47.958;11.366;2024-01-30T13:08:10;2.65;;;1.20;;
17947;SDS011;9099;47.958;11.366;2024-01-30T13:10:37;3.05;;;0.80;;
17947;SDS011;9099;47.958;11.366;2024-01-30T13:13:04;2.25;;;1.00;;
17947;SDS011;9099;47.958;11.366;2024-01-30T13:15:30;7.43;;;1.95;;
17947;SDS011;9099;47.958;11.366;2024-01-30T13:17:57;6.55;;;1.20;;
17947;SDS011;9099;47.958;11.366;2024-01-30T13:20:24;1.17;;;1.08;;
17947;SDS011;9099;47.958;11.366;2024-01-30T13:22:51;3.70;;;1.30;;
17947;SDS011;9099;47.958;11.366;2024-01-30T13:25:20;2.22;;;1.00;;
17947;SDS011;9099;47.958;11.366;2024-01-30T13:27:46;1.92;;;1.10;;
17947;SDS011;9099;47.958;11.366;2024-01-30T13:30:13;3.83;;;1.40;;
17947;SDS011;9099;47.958;11.366;2024-01-30T13:32:40;2.35;;;0.90;;
17947;SDS011;9099;47.958;11.366;2024-01-30T13:35:09;1.00;;;0.90;;
17947;SDS011;9099;47.958;11.366;2024-01-30T13:37:36;2.38;;;1.20;;
17947;SDS011;9099;47.958;11.366;2024-01-30T13:40:03;0.82;;;0.80;;
17947;SDS011;9099;47.958;11.366;2024-01-30T13:42:35;2.60;;;1.05;;
17947;SDS011;9099;47.958;11.366;2024-01-30T13:45:02;0.80;;;0.80;;
17947;SDS011;9099;47.958;11.366;2024-01-30T13:47:29;1.05;;;0.90;;
17947;SDS011;9099;47.958;11.366;2024-01-30T13:49:56;0.90;;;0.90;;
17947;SDS011;9099;47.958;11.366;2024-01-30T13:52:23;1.00;;;0.90;;
17947;SDS011;9099;47.958;11.366;2024-01-30T13:54:49;1.30;;;1.00;;
17947;SDS011;9099;47.958;11.366;2024-01-30T13:57:16;1.50;;;1.20;;
17947;SDS011;9099;47.958;11.366;2024-01-30T13:59:44;1.13;;;0.73;;
17947;SDS011;9099;47.958;11.366;2024-01-30T14:02:11;1.10;;;0.95;;
17947;SDS011;9099;47.958;11.366;2024-01-30T14:04:38;0.98;;;0.98;;
17947;SDS011;9099;47.958;11.366;2024-01-30T14:07:05;2.63;;;1.08;;
17947;SDS011;9099;47.958;11.366;2024-01-30T14:09:32;1.10;;;1.10;;
17947;SDS011;9099;47.958;11.366;2024-01-30T14:11:59;1.60;;;1.05;;
17947;SDS011;9099;47.958;11.366;2024-01-30T14:14:26;1.98;;;0.98;;
17947;SDS011;9099;47.958;11.366;2024-01-30T14:16:54;1.33;;;1.23;;
17947;SDS011;9099;47.958;11.366;2024-01-30T14:19:21;0.90;;;0.90;;
17947;SDS011;9099;47.958;11.366;2024-01-30T14:21:48;0.90;;;0.90;;
17947;SDS011;9099;47.958;11.366;2024-01-30T14:24:15;0.90;;;0.90;;
17947;SDS011;9099;47.958;11.366;2024-01-30T14:26:42;0.98;;;0.80;;
17947;SDS011;9099;47.958;11.366;2024-01-30T14:29:09;1.00;;;0.90;;
17947;SDS011;9099;47.958;11.366;2024-01-30T14:31:36;1.05;;;0.80;;
17947;SDS011;9099;47.958;11.366;2024-01-30T14:34:04;2.17;;;1.05;;
17947;SDS011;9099;47.958;11.366;2024-01-30T14:36:31;2.53;;;1.23;;
17947;SDS011;9099;47.958;11.366;2024-01-30T14:38:58;1.10;;;1.10;;
17947;SDS011;9099;47.958;11.366;2024-01-30T14:41:25;0.93;;;0.93;;
17947;SDS011;9099;47.958;11.366;2024-01-30T14:43:51;1.23;;;0.93;;
17947;SDS011;9099;47.958;11.366;2024-01-30T14:46:18;1.23;;;1.10;;
17947;SDS011;9099;47.958;11.366;2024-01-30T14:48:45;3.90;;;1.40;;
17947;SDS011;9099;47.958;11.366;2024-01-30T14:51:14;0.85;;;0.82;;
17947;SDS011;9099;47.958;11.366;2024-01-30T14:53:41;1.15;;;1.00;;
17947;SDS011;9099;47.958;11.366;2024-01-30T14:56:09;1.20;;;1.10;;
17947;SDS011;9099;47.958;11.366;2024-01-30T14:58:36;4.10;;;1.00;;